createdAt,value
2022-09-20T00:01:27.150Z,9.30
2022-09-20T00:03:57.817Z,9.30
2022-09-20T00:06:28.075Z,9.30
2022-09-20T00:08:57.714Z,9.30
2022-09-20T00:11:29.554Z,9.40
2022-09-20T00:13:59.859Z,9.40
2022-09-20T00:16:31.279Z,9.60
2022-09-20T00:19:03.866Z,9.70
2022-09-20T00:21:33.652Z,9.70
2022-09-20T00:24:02.247Z,9.80
2022-09-20T00:26:31.807Z,9.80
2022-09-20T00:29:00.353Z,9.80
2022-09-20T00:31:28.642Z,9.90
2022-09-20T00:34:14.937Z,9.90
2022-09-20T00:36:43.939Z,9.90
2022-09-20T00:39:13.711Z,9.80
2022-09-20T00:41:43.304Z,9.80
2022-09-20T00:44:53.946Z,9.70
2022-09-20T00:47:27.472Z,9.70
2022-09-20T00:50:01.090Z,9.60
2022-09-20T00:52:30.506Z,9.50
2022-09-20T00:55:00.058Z,9.60
2022-09-20T00:57:35.404Z,9.60
2022-09-20T01:00:08.156Z,9.50
2022-09-20T01:02:39.072Z,9.40
2022-09-20T01:05:10.452Z,9.30
2022-09-20T01:07:39.441Z,9.40
2022-09-20T01:10:08.254Z,9.30
2022-09-20T01:12:40.695Z,9.30
2022-09-20T01:15:10.855Z,9.20
2022-09-20T01:17:43.031Z,9.20
2022-09-20T01:20:16.901Z,9.20
2022-09-20T01:23:05.328Z,9.30
2022-09-20T01:26:08.315Z,9.20
2022-09-20T01:28:38.707Z,9.20
2022-09-20T01:31:13.076Z,9.20
2022-09-20T01:33:46.909Z,9.30
2022-09-20T01:36:20.161Z,9.30
2022-09-20T01:38:57.629Z,9.20
2022-09-20T01:41:32.078Z,9.10
2022-09-20T01:44:11.716Z,9.00
2022-09-20T01:46:41.606Z,8.90
2022-09-20T01:49:26.772Z,8.90
2022-09-20T01:52:42.899Z,8.80
2022-09-20T01:55:43.331Z,8.80
2022-09-20T01:58:38.055Z,8.70
2022-09-20T02:01:35.469Z,8.80
2022-09-20T02:04:40.474Z,8.80
2022-09-20T02:07:49.239Z,8.70
2022-09-20T02:10:36.315Z,8.60
2022-09-20T02:13:08.034Z,8.50
2022-09-20T02:15:51.202Z,8.40
2022-09-20T02:18:39.178Z,8.40
2022-09-20T02:21:18.988Z,8.50
2022-09-20T02:24:00.689Z,8.60
2022-09-20T02:26:42.118Z,8.50
2022-09-20T02:29:25.639Z,8.40
2022-09-20T02:32:24.161Z,8.40
2022-09-20T02:35:12.322Z,8.30
2022-09-20T02:37:58.464Z,8.30
2022-09-20T02:40:51.361Z,8.20
2022-09-20T02:43:27.021Z,8.10
2022-09-20T02:46:03.015Z,8.30
2022-09-20T02:48:39.310Z,8.20
2022-09-20T02:51:17.761Z,8.00
2022-09-20T02:53:56.459Z,7.80
2022-09-20T02:56:35.759Z,7.70
2022-09-20T02:59:14.098Z,7.90
2022-09-20T03:01:50.185Z,7.90
2022-09-20T03:04:35.928Z,7.90
2022-09-20T03:07:13.776Z,7.90
2022-09-20T03:09:49.325Z,7.80
2022-09-20T03:12:28.928Z,7.80
2022-09-20T03:15:11.403Z,7.70
2022-09-20T03:17:49.845Z,7.70
2022-09-20T03:20:34.027Z,7.70
2022-09-20T03:23:14.921Z,7.70
2022-09-20T03:25:56.134Z,7.60
2022-09-20T03:28:36.981Z,7.60
2022-09-20T03:31:20.703Z,7.60
2022-09-20T03:33:59.577Z,7.50
2022-09-20T03:36:42.953Z,7.40
2022-09-20T03:39:44.380Z,7.50
2022-09-20T03:42:17.611Z,7.60
2022-09-20T03:45:13.021Z,7.70
2022-09-20T03:48:06.889Z,7.80
2022-09-20T03:50:50.519Z,7.90
2022-09-20T03:54:09.698Z,8.20
2022-09-20T03:57:06.691Z,8.40
2022-09-20T04:00:06.299Z,8.60
2022-09-20T04:03:00.732Z,8.80
2022-09-20T04:05:38.781Z,8.90
2022-09-20T04:08:18.895Z,9.00
2022-09-20T04:10:54.653Z,9.10
2022-09-20T04:13:45.212Z,9.20
2022-09-20T04:16:24.884Z,9.20
2022-09-20T04:18:57.651Z,9.20
2022-09-20T04:21:32.951Z,9.30
2022-09-20T04:24:06.327Z,9.30
2022-09-20T04:26:40.692Z,9.40
2022-09-20T04:29:26.454Z,9.40
2022-09-20T04:32:01.392Z,9.40
2022-09-20T04:34:49.978Z,9.50
2022-09-20T04:37:27.671Z,9.50
2022-09-20T04:40:04.546Z,9.50
2022-09-20T04:43:11.452Z,9.50
2022-09-20T04:46:10.474Z,9.50
2022-09-20T04:48:56.967Z,9.50
2022-09-20T04:51:54.394Z,9.50
2022-09-20T04:54:52.489Z,9.40
2022-09-20T04:57:56.684Z,9.30
2022-09-20T05:00:27.378Z,9.20
2022-09-20T05:03:18.580Z,9.20
2022-09-20T05:06:08.499Z,9.00
2022-09-20T05:09:10.017Z,8.90
2022-09-20T05:11:57.125Z,8.70
2022-09-20T05:15:11.146Z,8.60
2022-09-20T05:18:05.768Z,8.60
2022-09-20T05:21:13.436Z,8.50
2022-09-20T05:24:08.389Z,8.50
2022-09-20T05:26:51.959Z,8.50
2022-09-20T05:29:26.505Z,8.50
2022-09-20T05:32:03.250Z,8.50
2022-09-20T05:34:42.473Z,8.30
2022-09-20T05:37:21.675Z,8.30
2022-09-20T05:40:00.372Z,8.20
2022-09-20T05:42:39.843Z,8.20
2022-09-20T05:45:23.588Z,8.10
2022-09-20T05:47:58.137Z,8.10
2022-09-20T05:50:41.135Z,8.10
2022-09-20T05:53:36.087Z,8.10
2022-09-20T05:56:12.887Z,8.20
2022-09-20T05:59:02.608Z,8.20
2022-09-20T06:01:35.324Z,8.20
2022-09-20T06:04:13.978Z,8.20
2022-09-20T06:06:53.436Z,8.30
2022-09-20T06:09:40.668Z,8.50
2022-09-20T06:12:21.764Z,8.60
2022-09-20T06:15:00.219Z,8.80
2022-09-20T06:17:34.211Z,8.90
2022-09-20T06:20:14.823Z,9.10
2022-09-20T06:22:47.245Z,9.30
2022-09-20T06:25:21.831Z,9.50
2022-09-20T06:27:54.877Z,9.70
2022-09-20T06:30:27.602Z,9.90
2022-09-20T06:32:58.184Z,10.00
2022-09-20T06:35:33.242Z,10.20
2022-09-20T06:38:35.161Z,10.30
2022-09-20T06:41:22.902Z,10.50
2022-09-20T06:43:51.127Z,10.80
2022-09-20T06:46:19.372Z,11.20
2022-09-20T06:48:50.373Z,11.60
2022-09-20T06:51:18.695Z,11.90
2022-09-20T06:53:48.573Z,12.10
2022-09-20T06:56:20.317Z,12.50
2022-09-20T06:58:48.715Z,12.80
2022-09-20T07:01:26.571Z,13.00
2022-09-20T07:03:57.713Z,13.20
2022-09-20T07:06:27.321Z,13.20
2022-09-20T07:08:57.025Z,12.80
2022-09-20T07:11:25.618Z,12.60
2022-09-20T07:13:56.382Z,12.50
2022-09-20T07:16:24.843Z,12.40
2022-09-20T07:18:53.263Z,12.30
2022-09-20T07:21:22.714Z,12.40
2022-09-20T07:23:51.320Z,12.30
2022-09-20T07:26:23.345Z,12.20
2022-09-20T07:28:52.327Z,12.20
2022-09-20T07:31:22.882Z,12.30
2022-09-20T07:33:51.538Z,12.40
2022-09-20T07:36:21.370Z,12.30
2022-09-20T07:38:50.398Z,12.40
2022-09-20T07:41:22.987Z,12.40
2022-09-20T07:43:52.301Z,12.40
2022-09-20T07:46:22.320Z,12.50
2022-09-20T07:48:50.658Z,12.60
2022-09-20T07:51:18.887Z,12.70
2022-09-20T07:53:47.094Z,12.90
2022-09-20T07:56:18.403Z,13.00
2022-09-20T07:58:52.265Z,13.10
2022-09-20T08:01:22.213Z,13.20
2022-09-20T08:03:51.890Z,13.40
2022-09-20T08:06:21.446Z,13.50
2022-09-20T08:08:51.703Z,13.60
2022-09-20T08:11:22.582Z,13.70
2022-09-20T08:14:09.547Z,13.90
2022-09-20T08:16:40.416Z,14.50
2022-09-20T08:19:08.770Z,15.00
2022-09-20T08:21:39.083Z,15.20
2022-09-20T08:24:07.737Z,15.60
2022-09-20T08:26:37.163Z,15.90
2022-09-20T08:29:07.237Z,16.10
2022-09-20T08:31:38.299Z,16.10
2022-09-20T08:34:09.028Z,16.00
2022-09-20T08:36:41.380Z,15.80
2022-09-20T08:42:03.264Z,15.10
2022-09-20T08:44:36.360Z,14.60
2022-09-20T08:47:13.924Z,14.40
2022-09-20T08:49:46.121Z,14.20
2022-09-20T08:52:21.098Z,14.30
2022-09-20T08:54:49.314Z,14.30
2022-09-20T08:57:19.652Z,14.50
2022-09-20T08:59:50.453Z,14.60
2022-09-20T09:02:20.702Z,14.60
2022-09-20T09:04:53.870Z,14.70
2022-09-20T09:07:23.700Z,14.80
2022-09-20T09:09:55.190Z,14.90
2022-09-20T09:12:25.725Z,14.90
2022-09-20T09:15:00.440Z,14.90
2022-09-20T09:17:30.074Z,15.00
2022-09-20T09:19:59.936Z,15.20
2022-09-20T09:22:35.289Z,15.20
2022-09-20T09:25:32.281Z,15.10
2022-09-20T09:28:02.637Z,15.00
2022-09-20T09:30:35.366Z,15.00
2022-09-20T09:33:26.627Z,15.10
2022-09-20T09:35:59.007Z,15.20
2022-09-20T09:38:30.721Z,15.20
2022-09-20T09:41:01.156Z,15.10
2022-09-20T09:43:32.031Z,15.00
2022-09-20T09:46:21.454Z,15.00
2022-09-20T09:49:06.716Z,15.00
2022-09-20T09:51:37.722Z,15.00
2022-09-20T09:54:06.636Z,14.90
2022-09-20T09:56:47.273Z,15.10
2022-09-20T09:59:40.335Z,15.40
2022-09-20T10:02:30.471Z,15.50
2022-09-20T10:05:03.163Z,15.90
2022-09-20T10:07:39.761Z,16.40
2022-09-20T10:10:18.317Z,16.70
2022-09-20T10:12:55.371Z,17.60
2022-09-20T10:15:34.230Z,18.30
2022-09-20T10:18:21.958Z,18.40
2022-09-20T10:21:00.366Z,18.60
2022-09-20T10:24:02.445Z,18.40
2022-09-20T10:27:10.538Z,17.80
2022-09-20T10:29:53.101Z,18.10
2022-09-20T10:32:31.607Z,18.50
2022-09-20T10:35:22.633Z,18.60
2022-09-20T10:38:12.746Z,18.90
2022-09-20T10:41:10.906Z,18.80
2022-09-20T10:44:05.111Z,18.80
2022-09-20T10:46:51.604Z,18.60
2022-09-20T10:49:29.179Z,18.40
2022-09-20T10:52:15.239Z,18.20
2022-09-20T10:54:57.518Z,17.80
2022-09-20T10:57:54.667Z,17.70
2022-09-20T11:00:24.693Z,17.30
2022-09-20T11:03:09.728Z,17.00
2022-09-20T11:05:47.697Z,16.70
2022-09-20T11:08:22.887Z,16.40
2022-09-20T11:10:55.300Z,15.90
2022-09-20T11:13:31.544Z,15.50
2022-09-20T11:16:06.127Z,15.10
2022-09-20T11:18:40.752Z,14.90
2022-09-20T11:21:16.649Z,14.70
2022-09-20T11:23:55.941Z,14.60
2022-09-20T11:29:40.012Z,14.50
2022-09-20T11:32:16.503Z,14.30
2022-09-20T11:34:53.546Z,14.30
2022-09-20T11:37:23.963Z,14.30
2022-09-20T11:39:56.163Z,14.40
2022-09-20T11:42:29.659Z,14.40
2022-09-20T11:44:58.258Z,14.40
2022-09-20T11:47:53.930Z,14.40
2022-09-20T11:50:48.470Z,14.20
2022-09-20T11:53:41.805Z,14.20
2022-09-20T11:56:17.857Z,14.30
2022-09-20T11:58:48.831Z,14.50
2022-09-20T12:01:28.201Z,14.60
2022-09-20T12:04:20.978Z,14.70
2022-09-20T12:06:57.812Z,14.90
2022-09-20T12:09:29.640Z,15.10
2022-09-20T12:12:00.680Z,15.30
2022-09-20T12:14:32.405Z,15.60
2022-09-20T12:17:00.765Z,15.90
2022-09-20T12:19:40.231Z,16.00
2022-09-20T12:22:29.526Z,16.30
2022-09-20T12:25:35.072Z,16.60
2022-09-20T12:28:05.373Z,17.00
2022-09-20T12:30:33.929Z,17.60
2022-09-20T12:33:04.142Z,18.10
2022-09-20T12:36:01.287Z,19.00
2022-09-20T12:38:41.469Z,19.60
2022-09-20T12:41:13.439Z,19.80
2022-09-20T12:43:56.294Z,19.60
2022-09-20T12:46:43.770Z,19.30
2022-09-20T12:49:50.559Z,19.10
2022-09-20T12:53:00.692Z,18.70
2022-09-20T12:55:33.851Z,18.50
2022-09-20T12:58:05.812Z,18.20
2022-09-20T13:00:40.821Z,18.50
2022-09-20T13:03:23.821Z,19.30
2022-09-20T13:06:12.893Z,20.00
2022-09-20T13:08:44.322Z,20.60
2022-09-20T13:11:17.620Z,21.30
2022-09-20T13:13:49.695Z,21.90
2022-09-20T13:16:23.854Z,22.00
2022-09-20T13:18:59.120Z,21.80
2022-09-20T13:21:27.968Z,21.50
2022-09-20T13:23:56.401Z,21.20
2022-09-20T13:26:30.134Z,20.40
2022-09-20T13:29:00.273Z,19.80
2022-09-20T13:31:33.721Z,19.70
2022-09-20T13:34:24.764Z,19.20
2022-09-20T13:36:56.638Z,18.80
2022-09-20T13:39:35.205Z,18.50
2022-09-20T13:42:08.380Z,18.40
2022-09-20T13:44:37.357Z,18.20
2022-09-20T13:47:23.707Z,18.20
2022-09-20T13:49:52.203Z,18.40
2022-09-20T13:52:31.549Z,18.80
2022-09-20T13:54:59.761Z,19.40
2022-09-20T13:57:29.932Z,19.70
2022-09-20T13:59:59.678Z,19.90
2022-09-20T14:02:32.920Z,20.10
2022-09-20T14:05:04.725Z,20.20
2022-09-20T14:07:36.459Z,20.50
2022-09-20T14:10:05.987Z,20.20
2022-09-20T14:12:34.782Z,19.40
2022-09-20T14:15:08.618Z,18.90
2022-09-20T14:17:38.497Z,18.50
2022-09-20T14:20:08.550Z,17.90
2022-09-20T14:22:36.935Z,17.40
2022-09-20T14:25:21.190Z,17.10
2022-09-20T14:27:49.482Z,16.80
2022-09-20T14:30:31.913Z,16.50
2022-09-20T14:33:01.859Z,16.30
2022-09-20T14:35:31.015Z,16.10
2022-09-20T14:38:02.694Z,16.20
2022-09-20T14:40:33.461Z,16.30
2022-09-20T14:43:03.516Z,16.40
2022-09-20T14:45:34.315Z,16.50
2022-09-20T14:48:10.729Z,16.40
2022-09-20T14:50:42.263Z,16.30
2022-09-20T14:53:31.856Z,16.20
2022-09-20T14:56:08.889Z,16.00
2022-09-20T14:59:18.830Z,15.80
2022-09-20T15:01:58.384Z,15.80
2022-09-20T15:04:28.847Z,16.70
2022-09-20T15:06:57.937Z,17.30
2022-09-20T15:09:26.177Z,17.60
2022-09-20T15:12:02.358Z,17.80
2022-09-20T15:14:35.063Z,17.80
2022-09-20T15:17:06.251Z,17.80
2022-09-20T15:19:35.855Z,17.70
2022-09-20T15:22:04.116Z,17.50
2022-09-20T15:24:32.435Z,17.30
2022-09-20T15:27:00.726Z,17.20
2022-09-20T15:29:29.243Z,17.10
2022-09-20T15:31:57.777Z,17.00
2022-09-20T15:34:26.286Z,16.90
2022-09-20T15:36:55.871Z,16.80
2022-09-20T15:39:24.682Z,16.70
2022-09-20T15:41:53.290Z,16.70
2022-09-20T15:44:22.077Z,16.70
2022-09-20T15:46:52.517Z,16.50
2022-09-20T15:49:20.838Z,16.50
2022-09-20T15:51:49.376Z,16.40
2022-09-20T15:54:19.642Z,16.30
2022-09-20T15:56:47.995Z,16.10
2022-09-20T15:59:17.315Z,16.00
2022-09-20T16:01:48.146Z,15.90
2022-09-20T16:04:19.526Z,15.90
2022-09-20T16:06:49.882Z,15.90
2022-09-20T16:09:19.920Z,15.80
2022-09-20T16:11:48.606Z,15.80
2022-09-20T16:14:16.933Z,15.80
2022-09-20T16:16:45.251Z,15.80
2022-09-20T16:19:20.161Z,15.70
2022-09-20T16:21:55.145Z,15.80
2022-09-20T16:24:28.103Z,15.80
2022-09-20T16:26:56.577Z,15.80
2022-09-20T16:29:25.950Z,15.80
2022-09-20T16:31:55.781Z,15.80
2022-09-20T16:34:30.237Z,15.80
2022-09-20T16:37:00.368Z,15.70
2022-09-20T16:39:31.212Z,15.70
2022-09-20T16:42:04.905Z,15.70
2022-09-20T16:44:33.835Z,15.80
2022-09-20T16:47:02.294Z,15.90
2022-09-20T16:49:31.592Z,15.90
2022-09-20T16:51:59.799Z,16.00
2022-09-20T16:54:32.132Z,16.00
2022-09-20T16:57:00.743Z,16.00
2022-09-20T16:59:29.052Z,15.90
2022-09-20T17:01:57.264Z,15.80
2022-09-20T17:04:26.572Z,15.80
2022-09-20T17:06:55.657Z,15.60
2022-09-20T17:09:23.920Z,15.40
2022-09-20T17:11:53.822Z,15.30
2022-09-20T17:14:22.239Z,15.10
2022-09-20T17:16:51.077Z,15.00
2022-09-20T17:19:20.710Z,14.90
2022-09-20T17:21:50.795Z,14.70
2022-09-20T17:24:20.844Z,14.50
2022-09-20T17:26:50.781Z,14.30
2022-09-20T17:29:21.693Z,14.00
2022-09-20T17:31:55.749Z,13.80
2022-09-20T17:34:26.460Z,13.60
2022-09-20T17:36:55.474Z,13.40
2022-09-20T17:39:24.326Z,13.30
2022-09-20T17:41:52.827Z,13.20
2022-09-20T17:44:22.661Z,13.10
2022-09-20T17:46:54.090Z,13.00
2022-09-20T17:49:23.936Z,12.70
2022-09-20T17:51:53.356Z,12.60
2022-09-20T17:54:22.347Z,12.50
2022-09-20T17:56:53.533Z,12.30
2022-09-20T17:59:23.292Z,12.10
2022-09-20T18:01:52.486Z,12.00
2022-09-20T18:04:24.267Z,11.90
2022-09-20T18:06:54.602Z,11.80
2022-09-20T18:09:24.947Z,11.70
2022-09-20T18:11:54.687Z,11.50
2022-09-20T18:14:28.503Z,11.30
2022-09-20T18:17:00.904Z,11.30
2022-09-20T18:19:32.996Z,11.10
2022-09-20T18:22:02.281Z,11.00
2022-09-20T18:24:31.292Z,11.00
2022-09-20T18:27:00.702Z,10.80
2022-09-20T18:29:36.775Z,10.80
2022-09-20T18:32:05.480Z,10.60
2022-09-20T18:34:34.255Z,10.50
2022-09-20T18:37:03.757Z,10.40
2022-09-20T18:39:34.877Z,10.40
2022-09-20T18:42:04.142Z,10.40
2022-09-20T18:44:34.039Z,10.40
2022-09-20T18:47:03.740Z,10.40
2022-09-20T18:49:32.598Z,10.30
2022-09-20T18:52:00.966Z,10.30
2022-09-20T18:54:30.519Z,10.30
2022-09-20T18:56:59.612Z,10.20
2022-09-20T18:59:29.187Z,10.20
2022-09-20T19:02:22.429Z,10.20
2022-09-20T19:05:14.831Z,10.10
2022-09-20T19:07:52.664Z,10.10
2022-09-20T19:10:28.036Z,10.10
2022-09-20T19:13:05.499Z,10.00
2022-09-20T19:15:53.711Z,10.00
2022-09-20T19:18:44.416Z,10.00
2022-09-20T19:21:22.775Z,10.00
2022-09-20T19:24:03.895Z,9.90
2022-09-20T19:26:39.989Z,9.90
2022-09-20T19:29:18.111Z,9.90
2022-09-20T19:31:48.995Z,10.00
2022-09-20T19:34:22.110Z,10.20
2022-09-20T19:37:03.549Z,10.30
2022-09-20T19:39:52.443Z,10.20
2022-09-20T19:42:30.074Z,10.20
2022-09-20T19:45:09.945Z,10.00
2022-09-20T19:47:51.090Z,9.80
2022-09-20T19:50:33.229Z,9.60
2022-09-20T19:53:03.907Z,9.50
2022-09-20T19:55:33.260Z,9.50
2022-09-20T19:58:02.139Z,9.50
2022-09-20T20:00:31.413Z,9.50
2022-09-20T20:03:00.295Z,9.40
2022-09-20T20:05:30.577Z,9.40
2022-09-20T20:08:17.503Z,9.20
2022-09-20T20:10:59.070Z,9.10
2022-09-20T20:13:52.115Z,9.00
2022-09-20T20:16:28.681Z,9.00
2022-09-20T20:19:19.555Z,8.90
2022-09-20T20:21:56.227Z,8.90
2022-09-20T20:24:30.959Z,9.00
2022-09-20T20:26:59.147Z,9.00
2022-09-20T20:29:27.393Z,9.10
2022-09-20T20:31:55.761Z,9.00
2022-09-20T20:34:26.433Z,9.00
2022-09-20T20:37:00.922Z,8.90
2022-09-20T20:39:31.598Z,8.80
2022-09-20T20:42:02.472Z,8.80
2022-09-20T20:44:31.129Z,8.80
2022-09-20T20:46:59.347Z,8.80
2022-09-20T20:49:27.728Z,8.80
2022-09-20T20:51:57.507Z,8.80
2022-09-20T20:54:25.707Z,8.90
2022-09-20T20:56:53.947Z,9.00
2022-09-20T20:59:22.277Z,9.00
2022-09-20T21:01:50.475Z,8.90
2022-09-20T21:04:18.789Z,8.80
2022-09-20T21:06:47.422Z,8.60
2022-09-20T21:09:17.096Z,8.60
2022-09-20T21:11:48.396Z,8.60
2022-09-20T21:14:16.844Z,8.80
2022-09-20T21:16:45.564Z,8.70
2022-09-20T21:19:15.843Z,8.80
2022-09-20T21:21:46.136Z,8.80
2022-09-20T21:24:18.000Z,8.80
2022-09-20T21:26:46.946Z,8.70
2022-09-20T21:29:16.156Z,8.50
2022-09-20T21:31:46.791Z,8.50
2022-09-20T21:34:16.668Z,8.50
2022-09-20T21:36:45.357Z,8.60
2022-09-20T21:39:13.752Z,8.60
2022-09-20T21:41:43.417Z,8.40
2022-09-20T21:44:12.199Z,8.30
2022-09-20T21:46:41.688Z,8.30
2022-09-20T21:49:12.073Z,8.60
2022-09-20T21:51:42.064Z,8.60
2022-09-20T21:54:11.070Z,8.40
2022-09-20T21:56:41.224Z,8.40
2022-09-20T21:59:10.910Z,8.30
2022-09-20T22:01:41.149Z,8.30
2022-09-20T22:04:11.115Z,8.30
2022-09-20T22:06:41.453Z,8.30
2022-09-20T22:09:10.985Z,8.40
2022-09-20T22:11:40.688Z,8.50
2022-09-20T22:14:11.217Z,8.30
2022-09-20T22:16:41.222Z,8.30
2022-09-20T22:19:11.288Z,8.20
2022-09-20T22:21:41.885Z,8.10
2022-09-20T22:24:12.227Z,8.10
2022-09-20T22:26:43.691Z,8.10
2022-09-20T22:29:14.026Z,8.00
2022-09-20T22:31:45.499Z,8.00
2022-09-20T22:34:17.112Z,7.90
2022-09-20T22:36:46.195Z,7.90
2022-09-20T22:39:15.014Z,7.80
2022-09-20T22:41:44.731Z,7.80
2022-09-20T22:44:14.980Z,7.70
2022-09-20T22:46:43.639Z,7.70
2022-09-20T22:49:12.142Z,7.70
2022-09-20T22:51:40.888Z,7.80
2022-09-20T22:54:11.211Z,7.70
2022-09-20T22:56:41.435Z,7.70
2022-09-20T22:59:11.704Z,7.60
2022-09-20T23:01:43.400Z,7.60
2022-09-20T23:04:14.627Z,7.60
2022-09-20T23:06:44.286Z,7.60
2022-09-20T23:09:14.543Z,7.70
2022-09-20T23:11:43.856Z,7.70
2022-09-20T23:14:13.794Z,7.80
2022-09-20T23:16:44.482Z,7.80
2022-09-20T23:19:13.613Z,7.90
2022-09-20T23:21:43.330Z,7.80
2022-09-20T23:24:13.542Z,7.90
2022-09-20T23:26:42.858Z,7.80
2022-09-20T23:29:13.060Z,7.70
2022-09-20T23:31:46.185Z,7.60
2022-09-20T23:34:16.644Z,7.50
2022-09-20T23:36:46.163Z,7.60
2022-09-20T23:39:15.396Z,7.50
2022-09-20T23:41:48.355Z,7.50
2022-09-20T23:44:19.312Z,7.50
2022-09-20T23:46:49.294Z,7.50
2022-09-20T23:49:17.865Z,7.50
2022-09-20T23:51:46.352Z,7.40
2022-09-20T23:54:14.860Z,7.50
2022-09-20T23:56:43.298Z,7.60
2022-09-20T23:59:12.028Z,7.70
